Time;durP1;ratioP1;P1;durP2;ratioP2;P2;SDS_P1;SDS_P2;PMS_P1;PMS_P2;Temp;Humidity;BMP_temperature;BMP_pressure;BME280_temperature;BME280_humidity;BME280_pressure;Samples;Min_cycle;Max_cycle;Signal;HPM_P1;HPM_P2
2023/06/21 00:00:31;;;;;;;3.05;2.60;;;22.50;99.90;;;;;;4167297;28;20090;-62
2023/06/21 00:02:32;;;;;;;3.25;2.55;;;22.50;99.90;;;;;;4187915;28;20037;-62
2023/06/21 00:04:32;;;;;;;3.30;2.65;;;22.50;99.90;;;;;;4163146;28;20522;-62
2023/06/21 00:06:36;;;;;;;3.33;2.60;;;22.60;99.90;;;;;;4162279;28;20116;-61
2023/06/21 00:08:38;;;;;;;4.20;2.78;;;22.60;99.90;;;;;;4173372;28;20036;-62
2023/06/21 00:10:39;;;;;;;3.40;2.70;;;22.60;99.90;;;;;;4176722;28;20397;-62
2023/06/21 00:12:39;;;;;;;4.38;3.30;;;22.60;99.90;;;;;;4174594;28;20121;-61
2023/06/21 00:14:40;;;;;;;3.95;2.67;;;22.70;99.90;;;;;;4169744;28;20045;-62
2023/06/21 00:16:40;;;;;;;3.72;2.80;;;22.70;99.90;;;;;;4176694;28;20112;-61
2023/06/21 00:18:41;;;;;;;3.28;2.60;;;22.70;99.90;;;;;;4179346;28;20056;-61
2023/06/21 00:20:42;;;;;;;3.65;3.00;;;22.70;99.90;;;;;;4177572;28;20036;-63
2023/06/21 00:22:45;;;;;;;3.92;3.20;;;22.70;99.90;;;;;;4176043;28;20025;-62
2023/06/21 00:24:46;;;;;;;7.43;3.60;;;22.60;99.90;;;;;;4172168;28;20452;-61
2023/06/21 00:26:47;;;;;;;4.20;3.58;;;22.60;99.90;;;;;;4176409;28;20032;-62
2023/06/21 00:28:47;;;;;;;4.05;3.22;;;22.60;99.90;;;;;;4167998;28;20044;-61
2023/06/21 00:30:48;;;;;;;5.50;3.60;;;22.60;99.90;;;;;;4164736;28;20124;-62
2023/06/21 00:32:48;;;;;;;4.60;3.20;;;22.60;99.90;;;;;;4177500;28;20033;-62
2023/06/21 00:34:49;;;;;;;4.97;3.33;;;22.50;99.90;;;;;;4162927;28;20025;-62
2023/06/21 00:36:50;;;;;;;6.53;3.88;;;22.50;99.90;;;;;;4167752;28;20021;-62
2023/06/21 00:38:50;;;;;;;3.70;3.00;;;22.50;99.90;;;;;;4169046;28;20053;-61
2023/06/21 00:40:53;;;;;;;4.55;3.45;;;22.40;99.90;;;;;;4171746;28;20396;-64
2023/06/21 00:42:54;;;;;;;5.10;3.15;;;22.40;99.90;;;;;;4173134;28;20044;-62
2023/06/21 00:44:54;;;;;;;9.13;3.58;;;22.40;99.90;;;;;;4176928;28;20383;-62
2023/06/21 00:46:55;;;;;;;5.45;3.15;;;22.40;99.90;;;;;;4178241;28;20056;-62
2023/06/21 00:48:58;;;;;;;5.03;3.20;;;22.30;99.90;;;;;;4178841;28;20036;-61
2023/06/21 00:50:59;;;;;;;6.60;3.47;;;22.30;99.90;;;;;;4176415;28;20040;-61
2023/06/21 00:53:00;;;;;;;3.70;3.10;;;22.40;99.90;;;;;;4179071;28;20025;-62
2023/06/21 00:55:00;;;;;;;5.03;4.00;;;22.30;99.90;;;;;;4177872;28;20522;-61
2023/06/21 00:57:03;;;;;;;4.55;2.90;;;22.30;99.90;;;;;;4177002;28;20063;-61
2023/06/21 00:59:04;;;;;;;4.60;3.70;;;22.30;99.90;;;;;;4172997;28;20048;-61
2023/06/21 01:01:05;;;;;;;3.70;2.90;;;22.30;99.90;;;;;;4164298;28;20032;-61
2023/06/21 01:03:06;;;;;;;4.72;3.30;;;22.30;99.90;;;;;;4177807;28;20392;-61
2023/06/21 01:05:07;;;;;;;4.68;3.40;;;22.30;99.90;;;;;;4166174;28;20223;-62
2023/06/21 01:07:46;;;;;;;5.03;3.45;;;22.30;99.90;;;;;;4168068;28;20036;-61
2023/06/21 01:09:50;;;;;;;4.28;3.13;;;22.30;99.90;;;;;;4175583;28;20051;-62
2023/06/21 01:12:04;;;;;;;4.85;3.67;;;22.30;99.90;;;;;;4176132;28;20083;-62
2023/06/21 01:14:26;;;;;;;5.97;3.47;;;22.30;99.90;;;;;;4178432;28;20435;-62
2023/06/21 01:16:35;;;;;;;4.95;3.17;;;22.30;99.90;;;;;;4175989;28;20029;-62
2023/06/21 01:18:36;;;;;;;7.53;3.42;;;22.40;99.90;;;;;;4176930;28;20051;-61
2023/06/21 01:20:37;;;;;;;5.57;3.67;;;22.30;99.90;;;;;;4176731;28;20037;-61
2023/06/21 01:23:05;;;;;;;4.32;3.50;;;22.30;99.90;;;;;;4177491;28;20282;-61
2023/06/21 01:25:43;;;;;;;4.68;3.58;;;22.30;99.90;;;;;;4176442;28;20025;-61
2023/06/21 01:28:12;;;;;;;5.03;3.80;;;22.30;99.90;;;;;;4176684;28;20036;-62
2023/06/21 01:30:14;;;;;;;4.68;3.60;;;22.30;99.90;;;;;;4176172;28;20043;-62
2023/06/21 01:32:17;;;;;;;4.65;3.55;;;22.20;99.90;;;;;;4175122;28;20502;-62
2023/06/21 01:34:18;;;;;;;5.10;3.45;;;22.20;99.90;;;;;;4161745;28;20030;-61
2023/06/21 01:36:19;;;;;;;4.95;3.45;;;22.20;99.90;;;;;;4160406;28;20037;-61
2023/06/21 01:38:20;;;;;;;4.43;3.10;;;22.20;99.90;;;;;;4161643;28;20562;-61
2023/06/21 01:40:21;;;;;;;4.68;3.78;;;22.20;99.90;;;;;;4164598;28;20492;-61
2023/06/21 01:42:21;;;;;;;4.38;3.50;;;22.10;99.90;;;;;;4177113;28;20029;-62
2023/06/21 01:44:22;;;;;;;5.68;3.40;;;22.10;99.90;;;;;;4177994;28;20121;-63
2023/06/21 01:46:26;;;;;;;4.55;3.47;;;22.20;99.90;;;;;;4172649;28;20400;-62
2023/06/21 01:48:27;;;;;;;4.70;3.75;;;22.10;99.90;;;;;;4178129;28;20041;-62
2023/06/21 01:50:28;;;;;;;4.88;3.50;;;22.10;99.90;;;;;;4175143;28;20044;-61
2023/06/21 01:52:29;;;;;;;4.70;3.72;;;22.20;99.90;;;;;;4176538;28;20048;-62
2023/06/21 01:54:33;;;;;;;4.28;3.55;;;22.20;99.90;;;;;;4178096;28;20047;-61
2023/06/21 01:56:36;;;;;;;5.50;3.75;;;22.20;99.90;;;;;;4175664;28;20064;-61
2023/06/21 01:58:37;;;;;;;;;;;22.20;99.90;;;;;;4177317;28;20106;-62
2023/06/21 02:00:37;;;;;;;4.95;3.65;;;22.20;99.90;;;;;;4169995;28;19913;-61
2023/06/21 02:02:39;;;;;;;4.32;3.83;;;22.20;99.90;;;;;;4161656;28;20033;-61
2023/06/21 02:04:41;;;;;;;6.15;3.90;;;22.20;99.90;;;;;;4159985;28;20079;-61
2023/06/21 02:06:42;;;;;;;4.50;3.93;;;22.20;99.90;;;;;;4160205;28;20370;-61
2023/06/21 02:08:44;;;;;;;4.85;3.92;;;22.20;99.90;;;;;;4176035;28;20615;-61
2023/06/21 02:10:46;;;;;;;5.18;3.90;;;22.20;99.90;;;;;;4173101;28;20040;-62
2023/06/21 02:12:49;;;;;;;5.57;4.28;;;22.10;99.90;;;;;;4167248;28;20060;-62
2023/06/21 02:14:49;;;;;;;5.95;4.05;;;22.10;99.90;;;;;;4177981;28;20025;-61
2023/06/21 02:16:51;;;;;;;4.25;3.67;;;22.00;99.90;;;;;;4176225;28;20392;-61
2023/06/21 02:18:51;;;;;;;7.00;4.35;;;22.00;99.90;;;;;;4175149;28;20039;-62
2023/06/21 02:20:52;;;;;;;4.57;3.63;;;22.00;99.90;;;;;;4176806;28;20120;-61
2023/06/21 02:22:53;;;;;;;4.82;4.03;;;22.00;99.90;;;;;;4177423;28;20037;-62
2023/06/21 02:24:56;;;;;;;7.60;4.55;;;21.90;99.90;;;;;;4177838;28;20470;-62
2023/06/21 02:26:56;;;;;;;7.18;4.63;;;21.90;99.90;;;;;;4166862;28;20090;-61
2023/06/21 02:28:57;;;;;;;5.82;4.22;;;21.80;99.90;;;;;;4161256;28;20552;-61
2023/06/21 02:30:57;;;;;;;5.80;4.25;;;21.80;99.90;;;;;;4160422;28;20418;-61
2023/06/21 02:32:58;;;;;;;5.28;4.10;;;21.80;99.90;;;;;;4160635;28;20041;-61
2023/06/21 02:34:59;;;;;;;5.35;4.35;;;21.80;99.90;;;;;;4159845;28;20033;-61
2023/06/21 02:36:59;;;;;;;5.97;4.63;;;21.70;99.90;;;;;;4160822;28;20044;-61
2023/06/21 02:39:00;;;;;;;5.15;3.92;;;21.70;99.90;;;;;;4177739;28;20396;-62
2023/06/21 02:41:01;;;;;;;7.38;4.57;;;21.60;99.90;;;;;;4176735;28;20111;-61
2023/06/21 02:43:01;;;;;;;5.78;4.63;;;21.60;99.90;;;;;;4168582;28;20033;-61
2023/06/21 02:45:02;;;;;;;6.05;4.28;;;21.60;99.90;;;;;;4177450;28;20400;-62
2023/06/21 02:47:03;;;;;;;5.82;4.20;;;21.60;99.90;;;;;;4170629;28;20083;-61
2023/06/21 02:49:04;;;;;;;5.32;4.22;;;21.50;99.90;;;;;;4176517;28;20438;-61
2023/06/21 02:51:05;;;;;;;6.55;4.35;;;21.50;99.90;;;;;;4176759;28;20064;-61
2023/06/21 02:53:05;;;;;;;6.45;4.85;;;21.50;99.90;;;;;;4177337;28;20037;-61
2023/06/21 02:55:07;;;;;;;5.55;4.05;;;21.60;99.90;;;;;;4175143;28;20091;-62
2023/06/21 02:57:08;;;;;;;5.93;4.85;;;21.50;99.90;;;;;;4171541;28;20480;-61
2023/06/21 02:59:09;;;;;;;6.68;5.25;;;21.50;99.90;;;;;;4176056;28;20108;-61
2023/06/21 03:01:10;;;;;;;5.75;4.22;;;21.50;99.90;;;;;;4176582;28;20033;-61
2023/06/21 03:03:10;;;;;;;5.32;4.32;;;21.50;99.90;;;;;;4165498;28;20121;-61
2023/06/21 03:05:12;;;;;;;7.53;4.80;;;21.50;99.90;;;;;;4163206;28;20049;-62
2023/06/21 03:07:13;;;;;;;6.28;4.90;;;21.50;99.90;;;;;;4165107;28;20116;-61
2023/06/21 03:09:13;;;;;;;6.32;5.03;;;21.50;99.90;;;;;;4180667;28;20029;-61
2023/06/21 03:11:14;;;;;;;5.72;3.90;;;21.40;99.90;;;;;;4179763;28;20400;-61
2023/06/21 03:13:15;;;;;;;5.85;4.20;;;21.40;99.90;;;;;;4177202;28;20606;-64
2023/06/21 03:15:15;;;;;;;8.60;4.97;;;21.40;99.90;;;;;;4179608;28;20033;-62
2023/06/21 03:17:16;;;;;;;6.03;4.28;;;21.40;99.90;;;;;;4179555;28;20040;-61
2023/06/21 03:19:18;;;;;;;6.70;4.85;;;21.50;99.90;;;;;;4180458;28;20104;-62
2023/06/21 03:21:18;;;;;;;5.93;4.68;;;21.50;99.90;;;;;;4176848;28;20029;-61
2023/06/21 03:23:19;;;;;;;5.90;4.60;;;21.50;99.90;;;;;;4168807;28;20045;-62
2023/06/21 03:25:19;;;;;;;7.35;5.07;;;21.50;99.90;;;;;;4179168;28;20034;-61
2023/06/21 03:27:20;;;;;;;7.72;5.53;;;21.50;99.90;;;;;;4179150;28;20040;-61
2023/06/21 03:29:21;;;;;;;6.35;4.72;;;21.50;99.90;;;;;;4180314;28;20037;-61
2023/06/21 03:31:22;;;;;;;5.55;4.18;;;21.50;99.90;;;;;;4179461;28;20492;-61
2023/06/21 03:33:23;;;;;;;7.90;4.85;;;21.50;99.90;;;;;;4179983;28;20040;-61
2023/06/21 03:35:27;;;;;;;6.80;4.60;;;21.50;99.90;;;;;;4177590;28;20381;-62
2023/06/21 03:37:27;;;;;;;7.00;5.28;;;21.50;99.90;;;;;;4179354;28;20421;-61
2023/06/21 03:39:28;;;;;;;6.90;5.40;;;21.50;99.90;;;;;;4180061;28;20036;-62
2023/06/21 03:41:29;;;;;;;7.93;5.43;;;21.50;99.90;;;;;;4177692;28;20056;-61
2023/06/21 03:43:29;;;;;;;6.10;4.88;;;21.50;99.90;;;;;;4171947;28;20040;-61
2023/06/21 03:45:30;;;;;;;5.90;4.57;;;21.50;99.90;;;;;;4160908;28;20411;-62
2023/06/21 03:47:30;;;;;;;6.38;4.97;;;21.50;99.90;;;;;;4164528;28;20476;-61
2023/06/21 03:49:32;;;;;;;5.78;4.75;;;21.60;99.90;;;;;;4163542;28;20044;-61
2023/06/21 03:51:32;;;;;;;7.72;5.32;;;21.60;99.90;;;;;;4160515;28;20048;-61
2023/06/21 03:53:33;;;;;;;7.13;4.38;;;21.60;99.90;;;;;;4162111;28;20052;-61
2023/06/21 03:55:36;;;;;;;6.97;5.05;;;21.70;99.90;;;;;;4157103;28;20030;-61
2023/06/21 03:57:38;;;;;;;7.20;5.40;;;21.70;99.90;;;;;;4164731;28;20619;-61
2023/06/21 03:59:39;;;;;;;9.63;4.85;;;21.70;99.90;;;;;;4170598;28;20033;-61
2023/06/21 04:01:39;;;;;;;7.40;4.90;;;21.70;99.90;;;;;;4175641;28;20040;-61
2023/06/21 04:03:40;;;;;;;6.15;4.95;;;21.70;99.90;;;;;;4174076;28;20038;-61
2023/06/21 04:05:40;;;;;;;7.07;5.40;;;21.70;99.90;;;;;;4153958;28;20065;-61
2023/06/21 04:07:41;;;;;;;7.72;5.80;;;21.70;99.90;;;;;;4156588;28;20032;-61
2023/06/21 04:09:41;;;;;;;7.30;5.28;;;21.70;99.90;;;;;;4177195;28;20033;-61
2023/06/21 04:11:42;;;;;;;7.85;5.88;;;21.70;99.90;;;;;;4176944;28;20040;-61
2023/06/21 04:13:43;;;;;;;7.15;5.68;;;21.70;99.90;;;;;;4175274;28;20033;-61
2023/06/21 04:15:43;;;;;;;7.05;4.95;;;21.70;99.90;;;;;;4160437;28;20063;-61
2023/06/21 04:17:44;;;;;;;10.10;5.78;;;21.70;99.90;;;;;;4163123;28;20037;-61
2023/06/21 04:19:44;;;;;;;7.45;5.05;;;21.70;99.90;;;;;;4177114;28;20041;-61
2023/06/21 04:21:45;;;;;;;7.55;5.05;;;21.70;99.90;;;;;;4174787;28;20029;-63
2023/06/21 04:23:45;;;;;;;7.90;5.80;;;21.70;99.90;;;;;;4163820;28;20026;-62
2023/06/21 04:25:46;;;;;;;6.70;5.20;;;21.70;99.90;;;;;;4177151;28;20032;-62
2023/06/21 04:27:47;;;;;;;7.63;5.50;;;21.80;99.90;;;;;;4176443;28;20063;-61
2023/06/21 04:29:48;;;;;;;6.82;4.93;;;21.80;99.90;;;;;;4176975;28;20029;-62
2023/06/21 04:31:51;;;;;;;6.65;5.00;;;21.70;99.90;;;;;;4175457;28;20104;-62
2023/06/21 04:33:53;;;;;;;6.82;5.32;;;21.80;99.90;;;;;;4176834;28;20439;-62
2023/06/21 04:35:54;;;;;;;7.07;5.25;;;21.80;99.90;;;;;;4172046;28;20115;-61
2023/06/21 04:37:54;;;;;;;7.00;5.25;;;21.90;99.90;;;;;;4173269;28;20036;-64
2023/06/21 04:39:55;;;;;;;6.68;5.25;;;21.80;99.90;;;;;;4174800;28;20025;-62
2023/06/21 04:41:58;;;;;;;6.18;5.13;;;21.80;99.90;;;;;;4166892;28;20029;-62
2023/06/21 04:43:58;;;;;;;6.43;5.05;;;21.80;99.90;;;;;;4172486;28;20033;-61
2023/06/21 04:45:59;;;;;;;6.90;5.35;;;21.90;99.90;;;;;;4174968;28;20460;-62
2023/06/21 04:48:00;;;;;;;7.50;5.32;;;21.90;99.90;;;;;;4176688;28;20388;-61
2023/06/21 04:50:01;;;;;;;7.15;5.82;;;21.90;99.90;;;;;;4177382;28;20025;-62
2023/06/21 04:52:02;;;;;;;6.75;5.10;;;21.90;99.90;;;;;;4176414;28;20025;-61
2023/06/21 04:54:06;;;;;;;7.75;5.68;;;21.90;99.90;;;;;;4177375;28;20506;-61
2023/06/21 04:56:06;;;;;;;8.50;5.85;;;21.90;99.90;;;;;;4176250;28;20037;-61
2023/06/21 04:58:08;;;;;;;9.50;5.20;;;21.90;99.90;;;;;;4176086;28;20132;-61
2023/06/21 05:00:09;;;;;;;6.20;5.05;;;21.90;99.90;;;;;;4167616;28;20174;-62
2023/06/21 05:02:10;;;;;;;7.72;5.10;;;22.00;99.90;;;;;;4162228;28;20033;-61
2023/06/21 05:04:11;;;;;;;8.77;5.90;;;22.00;99.90;;;;;;4171197;28;20120;-61
2023/06/21 05:06:11;;;;;;;7.15;5.70;;;22.00;99.90;;;;;;4177077;28;20033;-61
2023/06/21 05:08:12;;;;;;;6.93;5.15;;;22.10;99.90;;;;;;4176596;28;20396;-61
2023/06/21 05:10:13;;;;;;;8.10;5.35;;;22.00;99.90;;;;;;4173500;28;20025;-61
2023/06/21 05:12:14;;;;;;;7.75;5.80;;;22.10;99.90;;;;;;4182732;28;20033;-61
2023/06/21 05:14:14;;;;;;;6.72;5.35;;;22.10;99.90;;;;;;4176204;28;20206;-61
2023/06/21 05:16:15;;;;;;;7.68;5.47;;;22.20;99.90;;;;;;4176499;28;20037;-61
2023/06/21 05:18:15;;;;;;;10.70;6.43;;;22.20;99.90;;;;;;4176684;28;20025;-61
2023/06/21 05:20:20;;;;;;;7.03;5.15;;;22.20;99.90;;;;;;4177042;28;20028;-64
2023/06/21 05:22:20;;;;;;;9.05;5.85;;;22.20;99.90;;;;;;4164587;28;20033;-64
2023/06/21 05:24:21;;;;;;;7.85;5.60;;;22.20;99.90;;;;;;4171023;28;20060;-64
2023/06/21 05:26:22;;;;;;;5.55;4.57;;;22.20;99.90;;;;;;4169780;28;20029;-64
2023/06/21 05:28:22;;;;;;;10.57;6.75;;;22.20;99.90;;;;;;4170647;28;20290;-64
2023/06/21 05:30:23;;;;;;;7.13;5.90;;;22.30;99.90;;;;;;4176005;28;20389;-64
2023/06/21 05:32:25;;;;;;;6.55;5.70;;;22.30;99.90;;;;;;4165300;28;20049;-64
2023/06/21 05:34:27;;;;;;;8.30;6.22;;;22.40;99.90;;;;;;4182077;28;20033;-65
2023/06/21 05:36:28;;;;;;;6.70;5.38;;;22.30;99.90;;;;;;4168872;28;20076;-64
2023/06/21 05:38:28;;;;;;;7.95;5.60;;;22.40;99.90;;;;;;4177883;28;20025;-64
2023/06/21 05:40:29;;;;;;;9.55;6.80;;;22.40;99.90;;;;;;4176491;28;20029;-64
2023/06/21 05:42:29;;;;;;;9.55;6.32;;;22.50;99.90;;;;;;4169023;28;20037;-63
2023/06/21 05:44:30;;;;;;;11.07;7.35;;;22.50;99.90;;;;;;4168335;28;20124;-64
2023/06/21 05:46:31;;;;;;;8.02;5.85;;;22.50;99.90;;;;;;4163016;28;20041;-63
2023/06/21 05:48:31;;;;;;;7.03;5.75;;;22.60;99.90;;;;;;4165926;28;20037;-63
2023/06/21 05:50:32;;;;;;;9.35;6.35;;;22.80;99.90;;;;;;4162677;28;20172;-63
2023/06/21 05:52:32;;;;;;;11.30;6.47;;;23.00;99.90;;;;;;4159137;28;20041;-63
2023/06/21 05:54:33;;;;;;;8.57;5.82;;;23.20;99.90;;;;;;4175372;28;20551;-63
2023/06/21 05:56:37;;;;;;;7.45;5.45;;;23.60;99.90;;;;;;4174792;28;20040;-64
2023/06/21 05:58:37;;;;;;;6.68;5.47;;;23.90;99.90;;;;;;4176909;28;20324;-63
2023/06/21 06:00:38;;;;;;;6.25;5.28;;;24.30;99.90;;;;;;4173327;28;20045;-63
2023/06/21 06:02:38;;;;;;;8.02;6.47;;;24.60;99.90;;;;;;4168668;28;20504;-63
2023/06/21 06:04:39;;;;;;;7.75;5.85;;;24.90;99.90;;;;;;4175908;28;20095;-63
2023/06/21 06:06:41;;;;;;;9.57;5.55;;;25.00;99.90;;;;;;4176572;28;20036;-63
2023/06/21 06:08:41;;;;;;;7.50;5.82;;;25.20;99.90;;;;;;4177827;28;20032;-63
2023/06/21 06:10:42;;;;;;;7.65;5.78;;;25.40;99.90;;;;;;4176110;28;20072;-63
2023/06/21 06:12:43;;;;;;;8.55;6.15;;;25.40;99.90;;;;;;4181276;28;20040;-63
2023/06/21 06:14:43;;;;;;;13.57;6.32;;;25.50;99.90;;;;;;4184645;28;20028;-64
2023/06/21 06:16:44;;;;;;;7.18;5.80;;;25.40;99.90;;;;;;4184639;28;20029;-63
2023/06/21 06:18:45;;;;;;;10.52;5.82;;;25.50;99.90;;;;;;4176893;28;20116;-63
2023/06/21 06:20:45;;;;;;;9.48;6.65;;;25.50;99.90;;;;;;4176761;28;20036;-63
2023/06/21 06:22:49;;;;;;;7.07;5.43;;;25.50;99.90;;;;;;4168025;28;20041;-63
2023/06/21 06:24:50;;;;;;;7.63;5.68;;;25.60;99.90;;;;;;4158601;28;20116;-64
2023/06/21 06:26:51;;;;;;;7.38;5.53;;;25.70;99.90;;;;;;4166646;28;20515;-64
2023/06/21 06:28:52;;;;;;;7.88;5.55;;;25.70;99.90;;;;;;4163031;28;20055;-64
2023/06/21 06:30:53;;;;;;;6.90;5.67;;;25.70;99.90;;;;;;4167483;28;20625;-64
2023/06/21 06:32:53;;;;;;;5.80;5.20;;;25.60;99.90;;;;;;4164258;28;20299;-64
2023/06/21 06:34:54;;;;;;;7.07;5.57;;;25.50;99.90;;;;;;4161324;28;20021;-63
2023/06/21 06:36:55;;;;;;;7.45;5.57;;;25.40;99.90;;;;;;4165397;28;20079;-64
2023/06/21 06:38:55;;;;;;;6.63;5.38;;;25.40;99.90;;;;;;4168600;28;20064;-63
2023/06/21 06:40:56;;;;;;;8.65;6.05;;;25.30;99.90;;;;;;4168265;28;20386;-69
2023/06/21 06:42:57;;;;;;;8.27;6.25;;;25.20;99.90;;;;;;4167338;28;20041;-64
2023/06/21 06:44:57;;;;;;;7.13;5.22;;;25.10;99.90;;;;;;4168243;28;20331;-64
2023/06/21 06:47:00;;;;;;;7.80;6.13;;;25.00;99.90;;;;;;4167004;28;20523;-64
2023/06/21 06:49:01;;;;;;;9.32;6.50;;;24.90;99.90;;;;;;4167374;28;20064;-63
2023/06/21 06:51:02;;;;;;;9.88;7.05;;;24.80;99.90;;;;;;4179231;28;20079;-63
2023/06/21 06:53:04;;;;;;;8.00;6.07;;;24.60;99.90;;;;;;4173806;28;20037;-64
2023/06/21 06:55:05;;;;;;;;;;;24.50;99.90;;;;;;4170896;28;20156;-63
2023/06/21 06:57:06;;;;;;;14.82;7.75;;;24.50;99.90;;;;;;4165237;28;19948;-63
2023/06/21 06:59:06;;;;;;;7.65;6.20;;;24.50;99.90;;;;;;4171482;28;20037;-63
2023/06/21 07:01:07;;;;;;;6.97;5.63;;;24.30;99.90;;;;;;4171454;28;20037;-63
2023/06/21 07:03:08;;;;;;;7.47;6.28;;;24.30;99.90;;;;;;4169118;28;20044;-63
2023/06/21 07:05:08;;;;;;;9.43;5.70;;;24.30;99.90;;;;;;4167541;28;20136;-69
2023/06/21 07:07:09;;;;;;;12.20;7.60;;;24.30;99.90;;;;;;4173030;28;20486;-63
2023/06/21 07:09:09;;;;;;;8.15;6.35;;;24.20;99.90;;;;;;4169350;28;20116;-63
2023/06/21 07:11:11;;;;;;;10.60;6.65;;;24.20;99.90;;;;;;4164445;28;20045;-63
2023/06/21 07:13:12;;;;;;;12.02;7.22;;;24.20;99.90;;;;;;4168032;28;20048;-63
2023/06/21 07:15:12;;;;;;;6.53;5.10;;;24.20;99.90;;;;;;4169349;28;20480;-64
2023/06/21 07:17:13;;;;;;;7.40;5.63;;;24.20;99.90;;;;;;4171319;28;20520;-63
2023/06/21 07:19:13;;;;;;;8.60;5.47;;;24.30;99.90;;;;;;4173175;28;20079;-63
2023/06/21 07:21:17;;;;;;;8.70;6.78;;;24.30;99.90;;;;;;4194977;28;20132;-63
2023/06/21 07:23:17;;;;;;;8.60;6.72;;;24.40;99.90;;;;;;4180733;28;20064;-63
2023/06/21 07:25:18;;;;;;;7.15;5.93;;;24.40;99.90;;;;;;4178691;28;20041;-63
2023/06/21 07:27:19;;;;;;;8.77;6.70;;;24.50;99.90;;;;;;4179661;28;20551;-63
2023/06/21 07:29:19;;;;;;;8.68;6.68;;;24.50;99.90;;;;;;4175217;28;20033;-63
2023/06/21 07:31:20;;;;;;;8.68;6.30;;;24.50;99.90;;;;;;4167919;28;20038;-63
2023/06/21 07:33:21;;;;;;;6.63;5.32;;;24.60;99.90;;;;;;4169032;28;20056;-63
2023/06/21 07:35:22;;;;;;;11.43;7.13;;;24.60;99.90;;;;;;4184404;28;20111;-63
2023/06/21 07:37:22;;;;;;;9.23;5.82;;;24.60;99.90;;;;;;4196529;28;20039;-64
2023/06/21 07:39:23;;;;;;;10.80;6.20;;;24.60;99.90;;;;;;4186233;28;20076;-63
2023/06/21 07:41:24;;;;;;;7.75;5.72;;;24.70;99.90;;;;;;4170851;28;20120;-64
2023/06/21 07:43:24;;;;;;;8.73;6.13;;;24.70;99.90;;;;;;4171549;28;20032;-63
2023/06/21 07:45:25;;;;;;;9.27;6.40;;;24.70;99.90;;;;;;4174470;28;20040;-63
2023/06/21 07:47:26;;;;;;;6.97;5.60;;;24.70;99.90;;;;;;4175867;28;20056;-64
2023/06/21 07:49:26;;;;;;;9.13;6.13;;;24.70;99.90;;;;;;4178159;28;20055;-63
2023/06/21 07:51:27;;;;;;;7.75;6.15;;;24.80;99.90;;;;;;4172384;28;20045;-67
2023/06/21 07:53:27;;;;;;;7.97;5.50;;;24.80;99.90;;;;;;4171005;28;20041;-64
2023/06/21 07:55:28;;;;;;;9.57;6.80;;;24.80;99.90;;;;;;4170516;28;20037;-64
2023/06/21 07:57:29;;;;;;;8.32;5.97;;;24.80;99.90;;;;;;4176457;28;20033;-63
2023/06/21 07:59:31;;;;;;;7.15;6.10;;;24.80;99.90;;;;;;4173721;28;20044;-64
2023/06/21 08:01:31;;;;;;;6.82;5.20;;;24.80;99.90;;;;;;4172236;28;20056;-63
2023/06/21 08:03:32;;;;;;;6.43;5.25;;;24.80;99.90;;;;;;4171663;28;20029;-63
2023/06/21 08:05:32;;;;;;;7.10;5.68;;;24.80;99.90;;;;;;4168861;28;20048;-62
2023/06/21 08:07:33;;;;;;;10.73;7.05;;;24.90;99.90;;;;;;4175837;28;20112;-64
2023/06/21 08:09:34;;;;;;;8.20;6.50;;;25.00;99.90;;;;;;4166529;28;20038;-63
2023/06/21 08:11:34;;;;;;;9.85;6.38;;;25.10;99.90;;;;;;4171450;28;20036;-64
2023/06/21 08:13:35;;;;;;;8.65;6.70;;;25.10;99.90;;;;;;4172171;28;20036;-64
2023/06/21 08:15:35;;;;;;;12.00;6.65;;;25.10;99.90;;;;;;4171666;28;20029;-63
2023/06/21 08:17:36;;;;;;;6.65;5.32;;;25.20;99.90;;;;;;4176902;28;20543;-63
2023/06/21 08:19:36;;;;;;;6.93;6.05;;;25.20;99.90;;;;;;4177933;28;20385;-63
2023/06/21 08:21:37;;;;;;;8.07;6.05;;;25.30;99.90;;;;;;4167088;28;20133;-63
2023/06/21 08:23:37;;;;;;;9.52;6.55;;;25.30;99.90;;;;;;4176104;28;20054;-64
2023/06/21 08:25:38;;;;;;;18.35;6.22;;;25.40;99.90;;;;;;4168457;28;20531;-64
2023/06/21 08:27:39;;;;;;;9.75;6.95;;;25.40;99.90;;;;;;4173877;28;20395;-64
2023/06/21 08:29:39;;;;;;;6.00;5.18;;;25.40;99.90;;;;;;4179260;28;20122;-64
2023/06/21 08:31:40;;;;;;;7.20;6.32;;;25.40;99.90;;;;;;4177539;28;20037;-64
2023/06/21 08:33:41;;;;;;;10.23;7.40;;;25.40;99.90;;;;;;4178927;28;20033;-64
2023/06/21 08:35:41;;;;;;;10.05;6.80;;;25.50;99.90;;;;;;4177926;28;20036;-64
2023/06/21 08:37:56;;;;;;;5.90;4.75;;;25.50;99.90;;;;;;4178550;28;20032;-64
2023/06/21 08:39:57;;;;;;;7.35;5.55;;;25.60;99.90;;;;;;4178959;28;20342;-64
2023/06/21 08:41:58;;;;;;;9.45;6.40;;;25.60;99.90;;;;;;4177830;28;20139;-66
2023/06/21 08:43:59;;;;;;;6.97;5.68;;;25.60;99.90;;;;;;4178935;28;20041;-64
2023/06/21 08:46:03;;;;;;;6.03;5.13;;;25.50;99.90;;;;;;4170850;28;20036;-64
2023/06/21 08:48:06;;;;;;;6.35;5.55;;;25.60;99.90;;;;;;4179106;28;20032;-64
2023/06/21 08:50:08;;;;;;;7.35;5.78;;;25.60;99.90;;;;;;4178440;28;20090;-69
2023/06/21 08:52:10;;;;;;;;;;;25.70;99.90;;;;;;4162682;28;20034;-64
2023/06/21 08:54:12;;;;;;;7.72;6.13;;;25.70;99.90;;;;;;4161740;28;19936;-64
2023/06/21 08:56:19;;;;;;;6.20;5.55;;;25.70;99.90;;;;;;4167356;28;20044;-64
2023/06/21 08:58:25;;;;;;;9.15;6.30;;;25.80;99.90;;;;;;4177506;28;20033;-64
2023/06/21 09:00:58;;;;;;;7.38;6.28;;;25.90;99.90;;;;;;4172979;28;20172;-64
2023/06/21 09:03:07;;;;;;;8.90;5.88;;;25.90;99.90;;;;;;4176744;28;20028;-66
2023/06/21 09:05:14;;;;;;;7.07;5.80;;;25.90;99.90;;;;;;4177500;28;20381;-64
2023/06/21 09:07:15;;;;;;;7.20;5.03;;;25.80;99.90;;;;;;4172981;28;20045;-64
2023/06/21 09:09:17;;;;;;;8.18;5.93;;;25.90;99.90;;;;;;4178733;28;20547;-64
2023/06/21 09:11:18;;;;;;;6.55;4.78;;;25.80;99.90;;;;;;4177676;28;20055;-64
2023/06/21 09:13:19;;;;;;;5.97;4.30;;;25.80;99.90;;;;;;4176882;28;20527;-64
2023/06/21 09:15:21;;;;;;;7.65;6.25;;;25.90;99.90;;;;;;4177529;28;20463;-63
2023/06/21 09:17:23;;;;;;;8.13;5.35;;;25.80;99.90;;;;;;4172341;28;20029;-64
2023/06/21 09:19:24;;;;;;;6.57;5.00;;;26.00;99.90;;;;;;4178174;28;20128;-64
2023/06/21 09:21:25;;;;;;;7.70;4.80;;;26.00;99.90;;;;;;4177570;28;20025;-64
2023/06/21 09:23:25;;;;;;;4.97;4.32;;;26.10;99.90;;;;;;4177536;28;20037;-64
2023/06/21 09:25:27;;;;;;;5.55;4.57;;;26.20;99.90;;;;;;4177329;28;20084;-64
2023/06/21 09:27:27;;;;;;;5.43;4.63;;;26.20;99.90;;;;;;4172391;28;20029;-64
2023/06/21 09:29:28;;;;;;;7.45;4.75;;;26.30;99.90;;;;;;4178177;28;20040;-64
2023/06/21 09:31:29;;;;;;;9.00;6.50;;;26.40;99.90;;;;;;4170553;28;20064;-64
2023/06/21 09:33:29;;;;;;;9.57;6.07;;;26.40;99.90;;;;;;4177966;28;20067;-64
2023/06/21 09:35:30;;;;;;;8.18;6.55;;;26.40;99.90;;;;;;4175848;28;20036;-64
2023/06/21 09:37:36;;;;;;;8.13;6.22;;;26.50;99.90;;;;;;4176687;28;20029;-64
2023/06/21 09:39:36;;;;;;;5.20;4.70;;;26.50;99.90;;;;;;4177941;28;20286;-64
2023/06/21 09:41:39;;;;;;;9.60;6.18;;;26.60;99.90;;;;;;4177268;28;20527;-64
2023/06/21 09:43:44;;;;;;;11.77;7.45;;;26.70;99.90;;;;;;4178161;28;20051;-64
2023/06/21 09:46:00;;;;;;;10.52;7.28;;;26.70;99.90;;;;;;4177326;28;20048;-64
2023/06/21 09:48:01;;;;;;;8.95;7.07;;;26.70;99.90;;;;;;4170914;28;20500;-64
2023/06/21 09:50:06;;;;;;;11.70;7.85;;;26.70;99.90;;;;;;4176354;28;20033;-65
2023/06/21 09:52:07;;;;;;;7.32;6.50;;;26.60;99.90;;;;;;4159215;28;20040;-63
2023/06/21 09:54:08;;;;;;;10.10;7.13;;;26.70;99.90;;;;;;4160835;28;20424;-64
2023/06/21 09:56:09;;;;;;;8.82;7.40;;;26.70;99.90;;;;;;4158167;28;20496;-64
2023/06/21 09:58:09;;;;;;;7.72;6.35;;;26.60;99.90;;;;;;4161506;28;20040;-64
2023/06/21 10:00:11;;;;;;;7.22;6.38;;;26.70;99.90;;;;;;4152779;28;20509;-65
2023/06/21 10:02:12;;;;;;;6.32;4.95;;;26.80;99.90;;;;;;4150953;28;20503;-64
2023/06/21 10:04:14;;;;;;;8.18;7.03;;;26.80;99.90;;;;;;4164525;28;20041;-64
2023/06/21 10:06:17;;;;;;;6.72;5.75;;;26.80;99.90;;;;;;4166096;28;20102;-64
2023/06/21 10:08:26;;;;;;;10.50;6.40;;;26.90;99.90;;;;;;4177647;28;20103;-65
2023/06/21 10:10:26;;;;;;;6.93;5.30;;;26.90;99.90;;;;;;4176580;28;20040;-64
2023/06/21 10:12:27;;;;;;;6.63;5.30;;;26.90;99.90;;;;;;4173573;28;20040;-64
2023/06/21 10:14:30;;;;;;;7.15;5.70;;;27.00;99.90;;;;;;4169249;28;20027;-64
2023/06/21 10:16:32;;;;;;;6.13;5.18;;;27.00;99.90;;;;;;4171321;28;20025;-65
2023/06/21 10:18:34;;;;;;;;;;;27.10;99.90;;;;;;4173215;28;20029;-64
2023/06/21 10:20:36;;;;;;;5.70;4.68;;;27.10;99.90;;;;;;4168483;28;19909;-65
2023/06/21 10:22:38;;;;;;;5.95;4.50;;;27.20;99.90;;;;;;4162596;28;20029;-64
2023/06/21 10:24:47;;;;;;;5.95;5.35;;;27.30;99.90;;;;;;4171140;28;20139;-64
2023/06/21 10:26:49;;;;;;;7.38;5.68;;;27.30;99.90;;;;;;4168536;28;20068;-64
2023/06/21 10:28:56;;;;;;;5.47;4.38;;;27.30;99.90;;;;;;4176405;28;20060;-64
2023/06/21 10:30:57;;;;;;;6.30;5.50;;;27.30;99.90;;;;;;4173659;28;20365;-64
2023/06/21 10:33:00;;;;;;;6.40;5.53;;;27.30;99.90;;;;;;4174312;28;20041;-64
2023/06/21 10:35:14;;;;;;;5.10;4.20;;;27.30;99.90;;;;;;4175853;28;20043;-65